createdAt,value
2022-12-03T00:15:53.528Z,90.4
2022-12-03T00:35:53.370Z,90
2022-12-03T00:55:53.347Z,90.1
2022-12-03T01:15:58.304Z,90.2
2022-12-03T01:35:58.281Z,90.4
2022-12-03T01:55:58.327Z,90.8
2022-12-03T02:15:53.342Z,90.6
2022-12-03T02:36:03.244Z,90.6
2022-12-03T02:55:58.197Z,90.5
2022-12-03T03:15:58.208Z,90.4
2022-12-03T03:35:58.160Z,90.4
2022-12-03T03:55:58.131Z,90
2022-12-03T04:15:58.114Z,90.1
2022-12-03T04:35:58.118Z,90.4
2022-12-03T04:55:58.089Z,91.1
2022-12-03T05:15:58.215Z,93.4
2022-12-03T05:35:58.045Z,94.6
2022-12-03T05:55:57.986Z,95
2022-12-03T06:15:58.018Z,95.4
2022-12-03T06:35:57.980Z,96
2022-12-03T06:55:57.943Z,96.5
2022-12-03T07:15:57.966Z,96.6
2022-12-03T07:35:57.915Z,96.5
2022-12-03T07:55:57.917Z,96.4
2022-12-03T08:15:57.907Z,96.3
2022-12-03T08:35:57.871Z,96.3
2022-12-03T08:55:57.845Z,95.9
2022-12-03T09:15:57.808Z,95.2
2022-12-03T09:35:52.834Z,94.9
2022-12-03T09:55:57.777Z,94.6
2022-12-03T10:15:57.768Z,94.2
2022-12-03T10:35:52.753Z,93.7
2022-12-03T10:55:57.699Z,94.1
2022-12-03T11:15:57.787Z,94.6
2022-12-03T11:35:57.658Z,94.5
2022-12-03T11:56:01.405Z,94.5
2022-12-03T12:15:57.676Z,94.8
2022-12-03T12:35:57.591Z,94.9
2022-12-03T12:55:57.585Z,94.9
2022-12-03T13:15:57.588Z,94.9
2022-12-03T13:35:57.566Z,95
2022-12-03T13:55:57.520Z,95.4
2022-12-03T14:35:57.497Z,95.9
2022-12-03T14:55:57.473Z,96
2022-12-03T15:15:52.496Z,96.2
2022-12-03T15:35:57.436Z,96.3
2022-12-03T15:55:57.418Z,96.3
2022-12-03T16:35:57.357Z,96.5
2022-12-03T16:55:57.313Z,96.6
2022-12-03T17:15:57.320Z,96.6
2022-12-03T17:35:57.278Z,96.7
2022-12-03T17:55:57.277Z,96.7
2022-12-03T18:15:57.279Z,96.7
2022-12-03T18:35:57.214Z,96.8
2022-12-03T18:55:57.200Z,96.9
2022-12-03T19:35:57.172Z,97
2022-12-03T19:55:57.166Z,97
2022-12-03T20:15:57.142Z,97
2022-12-03T20:35:57.108Z,97
2022-12-03T20:55:59.240Z,97
2022-12-03T21:15:59.067Z,97
2022-12-03T21:36:04.142Z,97
2022-12-03T21:55:59.059Z,97
2022-12-03T22:15:57.038Z,97
2022-12-03T22:35:56.973Z,97.1
2022-12-03T22:55:56.984Z,97
2022-12-03T23:15:56.978Z,97.2
2022-12-03T23:35:56.937Z,97.3
2022-12-03T23:55:57.045Z,97.4
